Time;durP1;ratioP1;P1;durP2;ratioP2;P2;SDS_P1;SDS_P2;PMS_P1;PMS_P2;Temp;Humidity;BMP_temperature;BMP_pressure;BME280_temperature;BME280_humidity;BME280_pressure;Samples;Min_cycle;Max_cycle;Signal;HPM_P1;HPM_P2
2023/06/06 00:01:05;;;;;;;14.15;7.05;;;;;;;12.61;100.00;101946.72;5068724;28;20055;-57
2023/06/06 00:03:33;;;;;;;12.23;7.07;;;;;;;12.57;100.00;101948.69;5070621;28;20506;-57
2023/06/06 00:06:02;;;;;;;13.38;7.85;;;;;;;12.47;100.00;101952.75;5071937;28;20074;-60
2023/06/06 00:08:33;;;;;;;11.93;7.00;;;;;;;12.47;100.00;101945.69;5053619;28;20168;-57
2023/06/06 00:11:01;;;;;;;11.85;7.15;;;;;;;12.36;100.00;101953.34;5070342;28;20053;-57
2023/06/06 00:13:34;;;;;;;14.05;7.47;;;;;;;12.43;100.00;101951.22;5072404;28;20123;-52
2023/06/06 00:16:12;;;;;;;11.63;6.97;;;;;;;12.26;100.00;101945.09;5073719;28;20539;-56
2023/06/06 00:18:46;;;;;;;11.25;6.90;;;;;;;12.32;100.00;101950.06;5071694;28;20057;-57
2023/06/06 00:21:14;;;;;;;13.25;7.10;;;;;;;12.12;100.00;101950.25;5073503;28;20093;-49
2023/06/06 00:23:45;;;;;;;14.98;7.47;;;;;;;12.16;100.00;101946.53;5072259;28;20057;-49
2023/06/06 00:26:13;;;;;;;13.13;7.00;;;;;;;12.21;100.00;101944.50;5072544;28;20051;-48
2023/06/06 00:28:41;;;;;;;14.27;7.53;;;;;;;12.17;100.00;101942.97;5074860;28;20407;-49
2023/06/06 00:31:11;;;;;;;16.42;7.38;;;;;;;12.25;100.00;101945.19;5075078;28;20160;-49
2023/06/06 00:33:39;;;;;;;14.18;7.82;;;;;;;12.01;100.00;101937.66;5075125;28;20071;-50
2023/06/06 00:36:10;;;;;;;11.30;6.78;;;;;;;11.93;100.00;101953.88;5075409;28;20341;-51
2023/06/06 00:38:38;;;;;;;13.82;7.85;;;;;;;11.97;100.00;101957.22;5075136;28;20123;-52
2023/06/06 00:41:06;;;;;;;11.45;7.30;;;;;;;11.99;100.00;101952.72;5057004;28;20128;-50
2023/06/06 00:43:35;;;;;;;13.13;7.22;;;;;;;11.79;100.00;101951.97;5075083;28;20127;-51
2023/06/06 00:46:03;;;;;;;14.07;7.63;;;;;;;11.74;100.00;101945.22;5074760;28;20132;-48
2023/06/06 00:48:33;;;;;;;13.15;7.35;;;;;;;11.69;100.00;101949.91;5075145;28;20108;-51
2023/06/06 00:51:01;;;;;;;13.25;7.43;;;;;;;11.76;100.00;101948.63;5075131;28;20060;-50
2023/06/06 00:53:29;;;;;;;12.85;7.35;;;;;;;11.72;100.00;101953.22;5074915;28;20439;-49
2023/06/06 00:55:59;;;;;;;13.02;7.10;;;;;;;11.61;100.00;101953.75;5074639;28;20559;-49
2023/06/06 00:58:28;;;;;;;13.57;6.93;;;;;;;11.65;100.00;101941.28;5074789;28;20153;-49
2023/06/06 01:00:57;;;;;;;14.95;7.88;;;;;;;11.66;100.00;101940.38;5074617;28;20102;-52
2023/06/06 01:03:27;;;;;;;11.50;7.00;;;;;;;11.61;100.00;101932.69;5073489;28;20048;-51
2023/06/06 01:05:57;;;;;;;13.70;7.60;;;;;;;11.57;100.00;101941.69;5071345;28;20537;-50
2023/06/06 01:08:25;;;;;;;14.35;7.53;;;;;;;11.50;100.00;101943.78;5070915;28;20106;-50
2023/06/06 01:11:06;;;;;;;14.05;7.03;;;;;;;11.47;100.00;101940.47;5074054;28;20067;-52
2023/06/06 01:13:45;;;;;;;11.75;6.35;;;;;;;11.55;100.00;101940.94;5071024;28;20044;-52
2023/06/06 01:16:19;;;;;;;15.02;7.30;;;;;;;11.38;100.00;101936.50;5072202;28;20051;-49
2023/06/06 01:18:49;;;;;;;12.13;7.07;;;;;;;11.36;100.00;101943.66;5074021;28;20057;-47
2023/06/06 01:21:21;;;;;;;14.18;7.18;;;;;;;11.44;100.00;101932.72;5073611;28;20045;-50
2023/06/06 01:23:50;;;;;;;13.40;7.72;;;;;;;11.48;100.00;101939.53;5073944;28;20051;-49
2023/06/06 01:26:19;;;;;;;12.27;6.53;;;;;;;11.49;100.00;101934.19;5074127;28;20507;-55
2023/06/06 01:28:47;;;;;;;14.48;7.38;;;;;;;11.32;100.00;101936.84;5074090;28;20040;-56
2023/06/06 01:31:18;;;;;;;14.27;7.07;;;;;;;11.33;100.00;101943.81;5074066;28;20052;-54
2023/06/06 01:33:52;;;;;;;12.50;6.82;;;;;;;11.33;100.00;101941.19;5074055;28;20095;-55
2023/06/06 01:36:26;;;;;;;14.45;7.10;;;;;;;11.32;100.00;101936.84;5073944;28;20123;-48
2023/06/06 01:39:03;;;;;;;13.52;7.05;;;;;;;11.19;100.00;101935.75;5074189;28;20048;-56
2023/06/06 01:41:34;;;;;;;12.90;7.20;;;;;;;11.23;100.00;101932.88;5073473;28;20495;-56
2023/06/06 01:44:05;;;;;;;13.40;6.75;;;;;;;11.22;100.00;101933.81;5073761;28;20514;-56
2023/06/06 01:46:36;;;;;;;11.90;6.75;;;;;;;11.26;100.00;101935.38;5073444;28;20064;-56
2023/06/06 01:49:05;;;;;;;14.57;7.22;;;;;;;11.16;100.00;101934.97;5073704;28;20053;-54
2023/06/06 01:51:33;;;;;;;16.75;7.40;;;;;;;11.10;100.00;101940.56;5054371;28;20045;-54
2023/06/06 01:54:03;;;;;;;11.75;6.65;;;;;;;11.09;100.00;101951.16;5070205;28;20248;-56
2023/06/06 01:56:33;;;;;;;13.93;7.75;;;;;;;11.04;100.00;101946.09;5068837;28;20407;-54
2023/06/06 01:59:02;;;;;;;12.80;7.43;;;;;;;11.14;100.00;101950.00;5069862;28;20102;-55
2023/06/06 02:01:30;;;;;;;16.92;7.60;;;;;;;11.11;100.00;101941.38;5070316;28;20559;-55
2023/06/06 02:03:58;;;;;;;13.43;6.80;;;;;;;11.16;100.00;101942.03;5073443;28;20434;-54
2023/06/06 02:06:26;;;;;;;12.48;6.82;;;;;;;11.13;100.00;101945.66;5073340;28;20068;-54
2023/06/06 02:08:55;;;;;;;15.65;7.32;;;;;;;11.07;100.00;101953.88;5073319;28;20606;-55
2023/06/06 02:11:24;;;;;;;13.60;7.22;;;;;;;11.20;100.00;101946.19;5073466;28;20044;-55
2023/06/06 02:13:53;;;;;;;14.32;6.80;;;;;;;11.19;100.00;101952.38;5073374;28;20054;-55
2023/06/06 02:16:24;;;;;;;13.57;6.70;;;;;;;11.11;100.00;101942.25;5072980;28;20090;-55
2023/06/06 02:18:53;;;;;;;14.85;7.88;;;;;;;11.02;100.00;101942.72;5072802;28;20052;-52
2023/06/06 02:21:21;;;;;;;16.58;7.50;;;;;;;11.08;100.00;101941.56;5073031;28;20434;-48
2023/06/06 02:23:49;;;;;;;13.35;7.10;;;;;;;11.05;100.00;101946.97;5073293;28;20553;-51
2023/06/06 02:26:18;;;;;;;12.30;6.88;;;;;;;10.99;100.00;101945.50;5072687;28;20106;-50
2023/06/06 02:28:47;;;;;;;12.45;7.03;;;;;;;11.02;100.00;101936.59;5069176;28;20048;-52
2023/06/06 02:31:16;;;;;;;14.85;7.38;;;;;;;11.01;100.00;101940.16;5069444;28;20052;-51
2023/06/06 02:33:45;;;;;;;19.83;7.72;;;;;;;10.91;100.00;101945.88;5071359;28;20053;-45
2023/06/06 02:36:17;;;;;;;13.30;7.50;;;;;;;10.91;100.00;101937.13;5073170;28;20048;-51
2023/06/06 02:38:45;;;;;;;12.65;6.95;;;;;;;10.77;100.00;101946.56;5072905;28;20049;-50
2023/06/06 02:41:13;;;;;;;15.15;7.57;;;;;;;10.75;100.00;101944.91;5072791;28;20101;-50
2023/06/06 02:43:42;;;;;;;14.73;8.10;;;;;;;10.77;100.00;101933.41;5072914;28;20052;-51
2023/06/06 02:46:11;;;;;;;14.10;7.40;;;;;;;10.68;100.00;101938.25;5072707;28;20503;-53
2023/06/06 02:48:40;;;;;;;13.82;7.78;;;;;;;10.68;100.00;101941.72;5072613;28;20582;-50
2023/06/06 02:51:11;;;;;;;17.55;8.02;;;;;;;10.67;100.00;101937.38;5072784;28;20098;-52
2023/06/06 02:53:40;;;;;;;16.13;7.55;;;;;;;10.70;100.00;101931.97;5072585;28;20136;-50
2023/06/06 02:56:09;;;;;;;15.80;7.97;;;;;;;10.71;100.00;101946.00;5072429;28;20044;-50
2023/06/06 02:58:40;;;;;;;16.02;7.50;;;;;;;10.71;100.00;101938.09;5072670;28;20044;-49
2023/06/06 03:01:09;;;;;;;15.15;7.78;;;;;;;10.71;100.00;101938.09;5070416;28;20040;-57
2023/06/06 03:03:39;;;;;;;15.35;7.72;;;;;;;10.75;100.00;101942.28;5051641;28;20074;-54
2023/06/06 03:06:08;;;;;;;12.52;8.07;;;;;;;10.82;100.00;101935.78;5072336;28;20056;-48
2023/06/06 03:08:39;;;;;;;13.90;8.05;;;;;;;10.69;100.00;101942.56;5072500;28;20067;-53
2023/06/06 03:11:07;;;;;;;15.48;8.63;;;;;;;10.62;100.00;101953.41;5054293;28;20106;-49
2023/06/06 03:13:36;;;;;;;16.05;8.55;;;;;;;10.56;100.00;101956.31;5054384;28;20090;-49
2023/06/06 03:16:05;;;;;;;15.38;8.15;;;;;;;10.56;100.00;101952.84;5072155;28;20050;-50
2023/06/06 03:18:33;;;;;;;14.73;7.97;;;;;;;10.52;100.00;101951.28;5072060;28;20060;-49
2023/06/06 03:21:03;;;;;;;18.35;8.63;;;;;;;10.54;100.00;101957.31;5072609;28;20515;-48
2023/06/06 03:23:32;;;;;;;16.25;8.32;;;;;;;10.56;100.00;101958.94;5072440;28;20127;-54
2023/06/06 03:26:00;;;;;;;14.00;8.63;;;;;;;10.48;100.00;101954.06;5072439;28;20103;-54
2023/06/06 03:28:31;;;;;;;18.13;8.18;;;;;;;10.46;100.00;101955.91;5072210;28;20051;-56
2023/06/06 03:31:05;;;;;;;15.80;8.27;;;;;;;10.47;100.00;101959.38;5072403;28;20056;-55
2023/06/06 03:33:33;;;;;;;18.38;8.80;;;;;;;10.43;100.00;101952.53;5072033;28;20135;-54
2023/06/06 03:36:07;;;;;;;20.77;8.10;;;;;;;10.43;100.00;101953.41;5072091;28;20080;-54
2023/06/06 03:38:35;;;;;;;16.02;8.05;;;;;;;10.47;100.00;101956.75;5072155;28;20407;-56
2023/06/06 03:41:04;;;;;;;15.85;8.25;;;;;;;10.44;100.00;101951.63;5072057;28;20045;-50
2023/06/06 03:43:35;;;;;;;15.27;8.15;;;;;;;10.52;100.00;101957.38;5072242;28;20076;-52
2023/06/06 03:46:03;;;;;;;14.80;8.02;;;;;;;10.48;100.00;101950.56;5074059;28;20060;-49
2023/06/06 03:48:31;;;;;;;16.80;8.00;;;;;;;10.36;100.00;101953.78;5072391;28;20064;-49
2023/06/06 03:51:00;;;;;;;14.20;7.88;;;;;;;10.38;100.00;101952.78;5056040;28;20644;-48
2023/06/06 03:53:32;;;;;;;15.95;8.65;;;;;;;10.29;100.00;101956.66;5075874;28;20051;-48
2023/06/06 03:56:01;;;;;;;14.07;7.80;;;;;;;10.33;100.00;101946.84;5075723;28;20048;-52
2023/06/06 03:58:30;;;;;;;15.43;8.30;;;;;;;10.37;100.00;101948.44;5075634;28;20514;-48
2023/06/06 04:00:59;;;;;;;15.27;8.60;;;;;;;10.28;100.00;101951.44;5075849;28;20381;-47
2023/06/06 04:03:29;;;;;;;14.93;7.78;;;;;;;10.35;100.00;101952.94;5075583;28;20044;-49
2023/06/06 04:05:57;;;;;;;14.40;7.60;;;;;;;10.39;100.00;101953.63;5057574;28;20048;-46
2023/06/06 04:08:25;;;;;;;15.25;7.85;;;;;;;10.47;100.00;101951.47;5075532;28;20051;-52
2023/06/06 04:10:55;;;;;;;14.70;7.53;;;;;;;10.51;100.00;101955.66;5075401;28;20056;-51
2023/06/06 04:13:23;;;;;;;15.05;7.85;;;;;;;10.51;100.00;101958.31;5074491;28;20040;-51
2023/06/06 04:15:51;;;;;;;14.98;7.90;;;;;;;10.52;100.00;101956.53;5072707;28;20144;-53
2023/06/06 04:18:20;;;;;;;15.35;7.85;;;;;;;10.50;100.00;101961.88;5072231;28;20060;-53
2023/06/06 04:20:48;;;;;;;14.88;7.88;;;;;;;10.48;100.00;101954.06;5072025;28;20395;-53
2023/06/06 04:23:16;;;;;;;12.90;7.30;;;;;;;10.53;100.00;101956.47;5075190;28;20498;-52
2023/06/06 04:25:44;;;;;;;15.75;8.05;;;;;;;10.55;100.00;101954.63;5075594;28;20048;-52
2023/06/06 04:28:17;;;;;;;16.55;8.13;;;;;;;10.61;100.00;101956.94;5057197;28;20553;-50
2023/06/06 04:30:47;;;;;;;14.75;6.72;;;;;;;10.70;100.00;101947.75;5075156;28;20059;-51
2023/06/06 04:33:16;;;;;;;15.45;8.18;;;;;;;10.62;100.00;101944.63;5075078;28;20041;-51
2023/06/06 04:35:46;;;;;;;13.93;7.80;;;;;;;10.67;100.00;101957.59;5074610;28;20048;-51
2023/06/06 04:38:20;;;;;;;15.52;7.80;;;;;;;10.60;100.00;101963.13;5071674;28;20041;-50
2023/06/06 04:40:50;;;;;;;14.85;7.75;;;;;;;10.69;100.00;101950.47;5055561;28;20455;-55
2023/06/06 04:43:39;;;;;;;15.65;8.07;;;;;;;10.72;100.00;101950.34;5057749;28;20051;-55
2023/06/06 04:46:07;;;;;;;14.25;7.78;;;;;;;10.74;100.00;101951.09;5074698;28;20048;-54
2023/06/06 04:48:36;;;;;;;18.88;7.65;;;;;;;10.79;100.00;101944.69;5074971;28;20443;-55
2023/06/06 04:51:05;;;;;;;14.82;7.93;;;;;;;10.80;100.00;101940.28;5073665;28;20131;-56
2023/06/06 04:53:35;;;;;;;16.52;7.63;;;;;;;10.91;100.00;101943.25;5053512;28;20065;-55
2023/06/06 04:56:03;;;;;;;13.80;8.35;;;;;;;10.92;100.00;101947.59;5073362;28;20053;-57
2023/06/06 04:58:32;;;;;;;12.93;7.47;;;;;;;10.85;100.00;101946.16;5074191;28;20106;-56
2023/06/06 05:01:02;;;;;;;12.65;7.57;;;;;;;10.95;100.00;101952.69;5053745;28;20083;-55
2023/06/06 05:03:31;;;;;;;17.73;8.25;;;;;;;10.95;100.00;101951.84;5070537;28;20450;-56
2023/06/06 05:06:00;;;;;;;12.80;7.20;;;;;;;11.04;100.00;101951.38;5053035;28;20051;-56
2023/06/06 05:08:31;;;;;;;15.63;7.47;;;;;;;11.09;100.00;101956.44;5073188;28;20036;-56
2023/06/06 05:11:02;;;;;;;15.32;7.55;;;;;;;11.14;100.00;101952.63;5051958;28;20510;-57
2023/06/06 05:13:30;;;;;;;14.23;7.32;;;;;;;11.23;100.00;101961.84;5070547;28;20067;-54
2023/06/06 05:15:58;;;;;;;14.18;8.00;;;;;;;11.29;100.00;101958.91;5072625;28;20044;-55
2023/06/06 05:18:30;;;;;;;13.95;8.40;;;;;;;11.37;100.00;101960.28;5070317;28;20048;-53
2023/06/06 05:21:01;;;;;;;17.55;8.27;;;;;;;11.44;100.00;101966.97;5073266;28;20495;-55
2023/06/06 05:23:30;;;;;;;17.47;7.50;;;;;;;11.51;100.00;101963.09;5074431;28;20491;-56
2023/06/06 05:25:59;;;;;;;13.88;7.10;;;;;;;11.57;100.00;101957.50;5074363;28;20072;-58
2023/06/06 05:28:28;;;;;;;13.93;7.72;;;;;;;11.63;100.00;101958.94;5074112;28;20044;-57
2023/06/06 05:30:57;;;;;;;15.50;7.70;;;;;;;11.73;100.00;101954.91;5073963;28;20117;-56
2023/06/06 05:33:30;;;;;;;14.57;7.80;;;;;;;11.79;100.00;101954.59;5073892;28;20071;-57
2023/06/06 05:35:59;;;;;;;12.85;6.68;;;;;;;11.91;100.00;101958.34;5074141;28;20048;-55
2023/06/06 05:38:29;;;;;;;16.13;7.32;;;;;;;11.96;100.00;101956.38;5073640;28;20116;-54
2023/06/06 05:40:57;;;;;;;14.50;8.60;;;;;;;12.07;100.00;101954.97;5073628;28;20452;-52
2023/06/06 05:43:30;;;;;;;13.93;6.75;;;;;;;12.19;100.00;101951.66;5055596;28;20052;-51
2023/06/06 05:45:59;;;;;;;14.00;7.50;;;;;;;12.16;100.00;101957.94;5073717;28;20436;-56
2023/06/06 05:48:29;;;;;;;13.25;7.60;;;;;;;12.25;100.00;101953.09;5073604;28;20044;-57
2023/06/06 05:50:57;;;;;;;14.90;7.75;;;;;;;12.32;100.00;101952.69;5055610;28;20143;-55
2023/06/06 05:53:26;;;;;;;13.30;6.97;;;;;;;12.39;100.00;101958.44;5072227;28;20476;-51
2023/06/06 05:55:54;;;;;;;12.23;6.40;;;;;;;12.53;100.00;101963.00;5069791;28;20064;-53
2023/06/06 05:58:24;;;;;;;12.98;6.85;;;;;;;12.64;100.00;101960.59;5069515;28;20040;-53
2023/06/06 06:00:53;;;;;;;14.23;7.80;;;;;;;12.71;100.00;101957.59;5070702;28;20044;-53
2023/06/06 06:03:21;;;;;;;15.27;7.20;;;;;;;12.81;100.00;101964.91;5070315;28;20041;-51
2023/06/06 06:05:51;;;;;;;14.43;7.00;;;;;;;12.95;100.00;101956.22;5070019;28;20045;-51
2023/06/06 06:08:24;;;;;;;14.38;6.82;;;;;;;13.05;100.00;101958.31;5069667;28;20039;-52
2023/06/06 06:10:52;;;;;;;12.15;6.45;;;;;;;13.19;100.00;101966.28;5069585;28;20131;-51
2023/06/06 06:13:20;;;;;;;13.00;6.75;;;;;;;13.24;100.00;101958.94;5069658;28;20442;-57
2023/06/06 06:15:49;;;;;;;15.82;6.78;;;;;;;13.37;100.00;101963.53;5073074;28;20045;-52
2023/06/06 06:18:17;;;;;;;13.85;6.57;;;;;;;13.42;100.00;101954.41;5069589;28;20410;-50
2023/06/06 06:20:46;;;;;;;12.75;6.78;;;;;;;13.51;100.00;101967.06;5071002;28;20139;-50
2023/06/06 06:23:16;;;;;;;11.45;6.57;;;;;;;13.68;100.00;101960.75;5070854;28;20052;-50
2023/06/06 06:25:45;;;;;;;13.50;6.70;;;;;;;13.76;100.00;101959.44;5069744;28;20082;-52
2023/06/06 06:28:20;;;;;;;12.65;6.22;;;;;;;13.89;100.00;101967.47;5069954;28;20450;-51
2023/06/06 06:30:48;;;;;;;12.07;6.30;;;;;;;13.94;100.00;101965.41;5071756;28;20052;-56
2023/06/06 06:33:17;;;;;;;12.13;6.10;;;;;;;14.07;100.00;101970.75;5069658;28;20044;-52
2023/06/06 06:35:45;;;;;;;13.02;6.63;;;;;;;14.14;100.00;101958.88;5071614;28;20054;-51
2023/06/06 06:38:13;;;;;;;11.20;5.95;;;;;;;14.24;100.00;101967.09;5070076;28;20135;-57
2023/06/06 06:40:43;;;;;;;13.70;6.72;;;;;;;14.40;100.00;101969.59;5070002;28;20053;-57
2023/06/06 06:43:11;;;;;;;12.48;6.30;;;;;;;14.53;100.00;101958.16;5071668;28;20388;-56
2023/06/06 06:45:39;;;;;;;12.60;5.85;;;;;;;14.70;100.00;101953.59;5070190;28;20044;-52
2023/06/06 06:48:08;;;;;;;12.18;6.07;;;;;;;14.86;100.00;101948.13;5070911;28;20041;-51
2023/06/06 06:50:36;;;;;;;14.98;6.63;;;;;;;15.02;100.00;101956.78;5069976;28;20040;-58
2023/06/06 06:53:05;;;;;;;14.02;6.75;;;;;;;15.18;100.00;101963.69;5069730;28;20407;-58
2023/06/06 06:55:37;;;;;;;13.07;6.88;;;;;;;15.30;100.00;101960.22;5069473;28;20076;-58
2023/06/06 06:58:07;;;;;;;9.45;5.50;;;;;;;15.43;100.00;101962.03;5068908;28;20364;-58
2023/06/06 07:00:35;;;;;;;14.63;6.97;;;;;;;15.58;100.00;101968.06;5072572;28;20063;-58
2023/06/06 07:03:04;;;;;;;11.48;6.18;;;;;;;15.65;100.00;101962.25;5072519;28;20044;-58
2023/06/06 07:05:33;;;;;;;13.65;6.43;;;;;;;15.80;100.00;101967.47;5072481;28;20052;-58
2023/06/06 07:08:02;;;;;;;14.70;6.22;;;;;;;16.07;100.00;101969.16;5072450;28;20075;-58
2023/06/06 07:10:34;;;;;;;12.87;5.70;;;;;;;16.21;100.00;101969.88;5070688;28;20044;-57
2023/06/06 07:13:02;;;;;;;13.20;6.05;;;;;;;16.29;100.00;101961.38;5067610;28;20538;-57
2023/06/06 07:15:37;;;;;;;12.05;6.15;;;;;;;16.43;100.00;101965.69;5071261;28;20049;-57
2023/06/06 07:18:05;;;;;;;11.90;6.00;;;;;;;16.54;100.00;101964.91;5071706;28;20094;-59
2023/06/06 07:20:34;;;;;;;11.52;5.88;;;;;;;16.69;100.00;101969.06;5071197;28;20053;-51
2023/06/06 07:23:02;;;;;;;14.20;6.07;;;;;;;16.79;100.00;101971.91;5053964;28;20519;-53
2023/06/06 07:25:30;;;;;;;11.63;6.18;;;;;;;16.95;100.00;101968.16;5072306;28;20055;-57
2023/06/06 07:28:02;;;;;;;11.15;5.43;;;;;;;17.11;100.00;101970.50;5072343;28;20498;-48
2023/06/06 07:30:31;;;;;;;12.50;5.97;;;;;;;17.30;100.00;101962.84;5072042;28;20047;-49
2023/06/06 07:32:59;;;;;;;12.73;6.30;;;;;;;17.43;100.00;101969.88;5071901;28;20087;-50
2023/06/06 07:35:32;;;;;;;12.75;6.15;;;;;;;17.51;100.00;101959.50;5068385;28;20083;-51
2023/06/06 07:38:02;;;;;;;12.65;5.85;;;;;;;17.70;100.00;101965.06;5069842;28;20056;-53
2023/06/06 07:40:30;;;;;;;10.32;5.38;;;;;;;17.84;100.00;101957.84;5071984;28;20040;-57
2023/06/06 07:43:01;;;;;;;10.25;5.80;;;;;;;18.08;100.00;101961.25;5053934;28;20059;-58
2023/06/06 07:45:33;;;;;;;11.93;6.05;;;;;;;18.29;100.00;101957.81;5071262;28;20078;-58
2023/06/06 07:48:03;;;;;;;11.85;5.82;;;;;;;18.35;100.00;101960.00;5069375;28;20032;-58
2023/06/06 07:50:31;;;;;;;12.43;5.95;;;;;;;18.52;100.00;101955.13;5068531;28;20124;-59
2023/06/06 07:52:59;;;;;;;10.10;5.05;;;;;;;18.76;100.00;101946.94;5070698;28;20052;-58
2023/06/06 07:55:28;;;;;;;13.27;5.53;;;;;;;18.85;100.00;101943.50;5071842;28;20113;-58
2023/06/06 07:57:57;;;;;;;11.98;6.25;;;;;;;19.04;100.00;101944.66;5071856;28;20587;-58
2023/06/06 08:00:25;;;;;;;14.38;5.80;;;;;;;19.03;100.00;101948.28;5070964;28;20565;-57
2023/06/06 08:02:55;;;;;;;11.77;5.82;;;;;;;19.18;100.00;101943.50;5069371;28;20059;-58
2023/06/06 08:05:23;;;;;;;12.93;5.95;;;;;;;19.30;100.00;101950.44;5070206;28;20087;-57
2023/06/06 08:07:53;;;;;;;10.63;5.47;;;;;;;19.54;100.00;101944.00;5071745;28;20079;-52
2023/06/06 08:10:21;;;;;;;10.88;5.43;;;;;;;19.75;100.00;101941.28;5071882;28;20052;-57
2023/06/06 08:12:49;;;;;;;9.98;5.28;;;;;;;19.86;100.00;101945.72;5071567;28;20119;-58
2023/06/06 08:15:18;;;;;;;12.85;6.38;;;;;;;19.86;100.00;101951.06;5069960;28;20040;-53
2023/06/06 08:17:46;;;;;;;11.30;5.65;;;;;;;20.08;100.00;101950.88;5069110;28;20493;-57
2023/06/06 08:20:16;;;;;;;10.80;5.57;;;;;;;20.00;100.00;101950.72;5070686;28;20432;-58
2023/06/06 08:22:52;;;;;;;12.43;5.88;;;;;;;20.17;100.00;101948.38;5071436;28;20248;-58
2023/06/06 08:25:20;;;;;;;12.18;5.88;;;;;;;20.20;100.00;101943.56;5050165;28;20049;-58
2023/06/06 08:27:48;;;;;;;11.10;5.47;;;;;;;20.31;100.00;101942.63;5050754;28;20045;-58
2023/06/06 08:30:16;;;;;;;12.32;5.45;;;;;;;20.45;100.00;101941.41;5069584;28;20050;-58
2023/06/06 08:32:44;;;;;;;12.65;5.95;;;;;;;20.64;100.00;101935.19;5054181;28;20396;-59
2023/06/06 08:35:13;;;;;;;12.25;4.50;;;;;;;20.93;100.00;101932.56;5056037;28;20036;-59
2023/06/06 08:37:42;;;;;;;10.85;4.85;;;;;;;21.11;100.00;101935.38;5072467;28;20089;-59
2023/06/06 08:40:11;;;;;;;12.77;5.35;;;;;;;21.19;100.00;101939.19;5071640;28;20036;-59
2023/06/06 08:42:45;;;;;;;9.75;5.32;;;;;;;21.26;100.00;101937.59;5071092;28;20049;-59
2023/06/06 08:45:14;;;;;;;13.23;5.10;;;;;;;21.36;100.00;101941.09;5072136;28;20499;-59
2023/06/06 08:47:44;;;;;;;13.07;5.38;;;;;;;21.55;100.00;101934.03;5072103;28;20052;-58
2023/06/06 08:50:12;;;;;;;11.50;5.07;;;;;;;21.70;100.00;101932.56;5074577;28;20028;-54
2023/06/06 08:52:42;;;;;;;13.65;5.10;;;;;;;21.94;100.00;101933.88;5074777;28;20036;-54
2023/06/06 08:55:11;;;;;;;11.07;5.43;;;;;;;21.97;100.00;101938.09;5074708;28;20487;-52
2023/06/06 08:57:43;;;;;;;9.20;5.03;;;;;;;22.23;100.00;101931.03;5074770;28;20049;-54
2023/06/06 09:00:21;;;;;;;11.70;5.80;;;;;;;22.31;100.00;101927.59;5074581;28;20041;-52
2023/06/06 09:02:50;;;;;;;10.27;5.32;;;;;;;22.53;100.00;101925.50;5073976;28;20087;-53
2023/06/06 09:05:22;;;;;;;10.40;4.78;;;;;;;22.83;100.00;101920.75;5074327;28;20048;-51
2023/06/06 09:07:54;;;;;;;10.07;5.45;;;;;;;22.74;100.00;101923.38;5072754;28;20126;-58
2023/06/06 09:10:22;;;;;;;9.20;4.70;;;;;;;22.91;100.00;101912.78;5071337;28;20123;-53
2023/06/06 09:12:50;;;;;;;10.60;4.60;;;;;;;23.10;100.00;101906.38;5070265;28;20048;-54
2023/06/06 09:15:18;;;;;;;10.35;4.57;;;;;;;23.31;99.69;101908.72;5071104;28;20055;-53
2023/06/06 09:17:54;;;;;;;10.63;4.80;;;;;;;23.45;98.38;101909.97;5071058;28;20123;-54
2023/06/06 09:20:23;;;;;;;10.00;5.57;;;;;;;23.48;97.31;101906.13;5072241;28;20059;-54
2023/06/06 09:22:57;;;;;;;10.27;4.75;;;;;;;23.47;97.17;101905.28;5074055;28;20039;-53
2023/06/06 09:25:27;;;;;;;9.32;4.47;;;;;;;23.67;96.95;101903.22;5073957;28;20041;-52
2023/06/06 09:28:00;;;;;;;10.32;5.72;;;;;;;23.78;97.39;101910.97;5073039;28;20238;-59
2023/06/06 09:30:30;;;;;;;10.30;5.50;;;;;;;23.89;93.91;101911.72;5071184;28;20079;-59
2023/06/06 09:33:00;;;;;;;10.13;5.60;;;;;;;23.86;94.90;101910.16;5070759;28;20041;-53
2023/06/06 09:35:31;;;;;;;9.90;4.95;;;;;;;23.99;96.92;101909.72;5069707;28;20106;-59
2023/06/06 09:38:06;;;;;;;9.73;4.90;;;;;;;24.09;93.33;101906.91;5070422;28;20045;-59
2023/06/06 09:40:43;;;;;;;10.05;4.40;;;;;;;24.43;94.63;101901.44;5070561;28;20411;-53
2023/06/06 09:43:11;;;;;;;10.68;4.78;;;;;;;24.54;90.85;101902.97;5070881;28;20044;-59
2023/06/06 09:45:49;;;;;;;9.63;4.65;;;;;;;24.68;90.15;101901.50;5073329;28;20131;-58
2023/06/06 09:48:22;;;;;;;9.55;4.75;;;;;;;24.86;85.62;101903.16;5073417;28;20515;-53
2023/06/06 09:50:51;;;;;;;9.07;4.32;;;;;;;25.29;80.55;101901.06;5073219;28;20135;-58
2023/06/06 09:53:24;;;;;;;9.35;4.47;;;;;;;25.19;76.42;101895.06;5073220;28;20109;-58
2023/06/06 09:55:54;;;;;;;9.55;4.63;;;;;;;25.05;75.75;101894.72;5073502;28;20484;-58
2023/06/06 09:58:23;;;;;;;8.75;4.63;;;;;;;25.01;73.85;101893.41;5073727;28;20064;-51
2023/06/06 10:00:52;;;;;;;8.45;4.72;;;;;;;25.43;73.86;101897.72;5073427;28;20114;-59
2023/06/06 10:03:22;;;;;;;10.48;4.82;;;;;;;25.48;71.77;101895.34;5073204;28;20052;-59
2023/06/06 10:05:52;;;;;;;8.73;4.50;;;;;;;25.38;71.94;101889.31;5071453;28;20048;-59
2023/06/06 10:08:22;;;;;;;10.32;4.65;;;;;;;25.31;70.95;101889.13;5069658;28;20055;-58
2023/06/06 10:10:51;;;;;;;10.13;4.85;;;;;;;25.35;71.82;101894.22;5072706;28;20040;-58
2023/06/06 10:13:23;;;;;;;11.38;4.93;;;;;;;25.73;72.16;101889.03;5069012;28;20044;-58
2023/06/06 10:15:53;;;;;;;11.85;5.00;;;;;;;25.75;70.09;101879.72;5071553;28;20113;-58
2023/06/06 10:18:22;;;;;;;12.48;4.80;;;;;;;26.21;70.31;101894.34;5072981;28;20078;-53
2023/06/06 10:20:53;;;;;;;10.43;4.43;;;;;;;26.33;70.80;101887.53;5052516;28;20040;-57
2023/06/06 10:23:25;;;;;;;10.15;4.72;;;;;;;26.72;67.59;101885.72;5068866;28;20461;-58
2023/06/06 10:25:55;;;;;;;10.07;4.93;;;;;;;26.68;64.96;101882.50;5069350;28;20053;-57
2023/06/06 10:28:29;;;;;;;22.10;6.05;;;;;;;26.72;65.04;101883.84;5069743;28;20052;-59
2023/06/06 10:31:03;;;;;;;10.38;4.35;;;;;;;26.86;66.85;101875.97;5072578;28;20071;-59
2023/06/06 10:33:41;;;;;;;9.20;4.97;;;;;;;27.02;64.22;101886.59;5072696;28;20141;-57
2023/06/06 10:36:13;;;;;;;22.85;5.22;;;;;;;26.96;63.56;101881.97;5072871;28;20048;-58
2023/06/06 10:39:19;;;;;;;10.38;4.72;;;;;;;27.09;62.26;101886.72;5071629;28;20055;-55
2023/06/06 10:41:53;;;;;;;8.88;4.32;;;;;;;27.22;62.48;101876.13;5068833;28;20067;-59
2023/06/06 10:44:34;;;;;;;10.52;4.70;;;;;;;27.54;60.86;101873.25;5071294;28;20076;-59
2023/06/06 10:47:27;;;;;;;8.65;4.57;;;;;;;27.89;59.67;101870.78;5072094;28;20395;-58
2023/06/06 10:50:22;;;;;;;10.65;4.78;;;;;;;27.96;59.63;101867.13;5070071;28;20040;-59
2023/06/06 10:52:52;;;;;;;8.55;4.75;;;;;;;27.84;58.31;101871.31;5071494;28;20059;-60
2023/06/06 10:55:45;;;;;;;7.78;4.10;;;;;;;28.19;56.25;101860.72;5069258;28;20052;-57
2023/06/06 10:58:28;;;;;;;12.10;4.70;;;;;;;28.42;55.49;101865.09;5068272;28;20052;-54
2023/06/06 11:01:01;;;;;;;13.15;5.07;;;;;;;28.34;54.44;101868.78;5069157;28;20045;-59
2023/06/06 11:03:36;;;;;;;9.20;4.60;;;;;;;28.13;54.82;101866.91;5053893;28;20071;-60
2023/06/06 11:06:07;;;;;;;9.40;4.78;;;;;;;28.16;54.45;101872.75;5071985;28;20452;-51
2023/06/06 11:08:37;;;;;;;9.20;4.60;;;;;;;28.50;53.84;101873.91;5072018;28;20037;-52
2023/06/06 11:11:25;;;;;;;8.98;3.58;;;;;;;28.58;54.50;101875.66;5072010;28;20067;-52
2023/06/06 11:13:58;;;;;;;12.00;4.65;;;;;;;28.38;53.71;101864.66;5068797;28;20664;-53
2023/06/06 11:17:00;;;;;;;9.27;4.57;;;;;;;28.31;53.42;101869.16;5052002;28;20110;-47
2023/06/06 11:19:37;;;;;;;9.70;4.53;;;;;;;28.38;52.68;101870.06;5068784;28;20060;-50
2023/06/06 11:22:06;;;;;;;9.52;4.25;;;;;;;28.63;53.94;101870.53;5072012;28;20048;-55
2023/06/06 11:24:37;;;;;;;8.75;4.43;;;;;;;28.48;51.37;101867.00;5071372;28;20047;-53
2023/06/06 11:27:08;;;;;;;10.02;4.60;;;;;;;28.51;52.77;101863.94;5068140;28;20573;-51